createdAt,value
2023-05-11T00:00:11.492Z,100.00
2023-05-11T00:02:39.290Z,100.00
2023-05-11T00:05:07.894Z,100.00
2023-05-11T00:07:35.671Z,100.00
2023-05-11T00:10:05.242Z,100.00
2023-05-11T00:12:33.338Z,100.00
2023-05-11T00:15:00.989Z,100.00
2023-05-11T00:17:28.889Z,100.00
2023-05-11T00:19:56.784Z,100.00
2023-05-11T00:22:24.476Z,100.00
2023-05-11T00:24:52.081Z,100.00
2023-05-11T00:27:21.324Z,100.00
2023-05-11T00:29:48.860Z,100.00
2023-05-11T00:32:16.496Z,100.00
2023-05-11T00:34:44.360Z,100.00
2023-05-11T00:37:12.003Z,100.00
2023-05-11T00:39:39.634Z,100.00
2023-05-11T00:42:07.655Z,100.00
2023-05-11T00:44:36.762Z,100.00
2023-05-11T00:47:04.611Z,100.00
2023-05-11T00:49:32.797Z,100.00
2023-05-11T00:52:00.724Z,100.00
2023-05-11T00:54:28.562Z,100.00
2023-05-11T00:56:56.445Z,100.00
2023-05-11T00:59:24.126Z,100.00
2023-05-11T01:01:53.140Z,100.00
2023-05-11T01:04:21.186Z,100.00
2023-05-11T01:06:54.890Z,100.00
2023-05-11T01:09:32.389Z,100.00
2023-05-11T01:12:10.134Z,100.00
2023-05-11T01:14:45.229Z,100.00
2023-05-11T01:17:23.790Z,100.00
2023-05-11T01:19:57.563Z,100.00
2023-05-11T01:22:37.993Z,100.00
2023-05-11T01:25:21.557Z,100.00
2023-05-11T01:28:15.725Z,100.00
2023-05-11T01:30:49.892Z,100.00
2023-05-11T01:33:22.298Z,100.00
2023-05-11T01:35:56.580Z,100.00
2023-05-11T01:38:30.502Z,100.00
2023-05-11T01:41:00.748Z,100.00
2023-05-11T01:43:33.481Z,100.00
2023-05-11T01:46:05.208Z,100.00
2023-05-11T01:48:35.638Z,100.00
2023-05-11T01:51:04.875Z,100.00
2023-05-11T01:53:35.502Z,100.00
2023-05-11T01:56:05.144Z,100.00
2023-05-11T01:58:34.278Z,100.00
2023-05-11T02:01:04.150Z,100.00
2023-05-11T02:03:36.440Z,100.00
2023-05-11T02:06:04.253Z,100.00
2023-05-11T02:08:33.414Z,100.00
2023-05-11T02:11:03.448Z,100.00
2023-05-11T02:13:32.767Z,100.00
2023-05-11T02:16:01.771Z,100.00
2023-05-11T02:18:33.226Z,100.00
2023-05-11T02:21:03.259Z,100.00
2023-05-11T02:23:32.906Z,100.00
2023-05-11T02:26:02.996Z,100.00
2023-05-11T02:28:31.350Z,100.00
2023-05-11T02:31:04.738Z,100.00
2023-05-11T02:33:38.878Z,100.00
2023-05-11T02:36:07.632Z,100.00
2023-05-11T02:38:38.560Z,100.00
2023-05-11T02:41:14.393Z,100.00
2023-05-11T02:43:46.904Z,100.00
2023-05-11T02:46:19.028Z,100.00
2023-05-11T02:48:59.547Z,100.00
2023-05-11T02:51:31.494Z,100.00
2023-05-11T02:53:59.733Z,100.00
2023-05-11T02:56:27.876Z,100.00
2023-05-11T02:58:55.550Z,100.00
2023-05-11T03:01:24.189Z,100.00
2023-05-11T03:03:53.461Z,100.00
2023-05-11T03:06:21.335Z,100.00
2023-05-11T03:08:49.201Z,100.00
2023-05-11T03:11:18.203Z,100.00
2023-05-11T03:13:46.382Z,100.00
2023-05-11T03:16:14.612Z,100.00
2023-05-11T03:18:43.085Z,100.00
2023-05-11T03:21:15.007Z,100.00
2023-05-11T03:23:46.457Z,100.00
2023-05-11T03:26:18.893Z,100.00
2023-05-11T03:28:52.614Z,100.00
2023-05-11T03:31:20.478Z,100.00
2023-05-11T03:33:48.302Z,100.00
2023-05-11T03:36:18.050Z,100.00
2023-05-11T03:38:48.185Z,100.00
2023-05-11T03:41:17.694Z,100.00
2023-05-11T03:43:48.864Z,100.00
2023-05-11T03:46:20.718Z,100.00
2023-05-11T03:48:48.857Z,100.00
2023-05-11T03:51:18.412Z,100.00
2023-05-11T03:53:46.581Z,100.00
2023-05-11T03:56:14.375Z,100.00
2023-05-11T03:58:42.357Z,100.00
2023-05-11T04:01:10.439Z,100.00
2023-05-11T04:03:53.585Z,100.00
2023-05-11T04:06:23.708Z,100.00
2023-05-11T04:08:51.574Z,100.00
2023-05-11T04:11:22.550Z,98.35
2023-05-11T04:13:50.673Z,97.65
2023-05-11T04:16:18.450Z,94.25
2023-05-11T04:18:46.215Z,90.08
2023-05-11T04:21:14.215Z,85.95
2023-05-11T04:23:43.184Z,84.09
2023-05-11T04:26:11.015Z,83.72
2023-05-11T04:28:38.926Z,81.02
2023-05-11T04:31:06.613Z,78.31
2023-05-11T04:33:34.244Z,75.76
2023-05-11T04:36:02.112Z,73.13
2023-05-11T04:38:30.060Z,71.35
2023-05-11T04:41:03.402Z,67.77
2023-05-11T04:43:33.138Z,65.39
2023-05-11T04:46:00.826Z,63.28
2023-05-11T04:48:28.646Z,63.16
2023-05-11T04:50:56.520Z,63.13
2023-05-11T04:53:24.391Z,63.99
2023-05-11T04:55:52.358Z,65.25
2023-05-11T04:58:21.721Z,64.30
2023-05-11T05:00:49.374Z,63.78
2023-05-11T05:03:17.897Z,63.32
2023-05-11T05:05:45.620Z,57.32
2023-05-11T05:08:13.160Z,56.60
2023-05-11T05:10:41.273Z,54.88
2023-05-11T05:13:08.859Z,57.29
2023-05-11T05:15:37.845Z,57.23
2023-05-11T05:18:05.744Z,53.90
2023-05-11T05:20:33.428Z,49.84
2023-05-11T05:23:00.978Z,50.51
2023-05-11T05:25:29.534Z,51.11
2023-05-11T05:27:57.310Z,51.69
2023-05-11T05:30:24.883Z,51.62
2023-05-11T05:32:54.088Z,47.55
2023-05-11T05:35:21.932Z,46.50
2023-05-11T05:37:49.829Z,46.86
2023-05-11T05:40:20.186Z,45.17
2023-05-11T05:42:48.312Z,45.91
2023-05-11T05:45:16.030Z,43.90
2023-05-11T05:47:43.778Z,42.95
2023-05-11T05:50:13.060Z,44.18
2023-05-11T05:52:41.855Z,45.15
2023-05-11T05:55:15.036Z,45.72
2023-05-11T05:57:43.160Z,41.72
2023-05-11T06:00:12.096Z,42.42
2023-05-11T06:02:40.533Z,44.02
2023-05-11T06:05:09.076Z,42.38
2023-05-11T06:07:38.438Z,40.76
2023-05-11T06:10:06.719Z,43.90
2023-05-11T06:12:34.828Z,40.48
2023-05-11T06:15:02.578Z,41.54
2023-05-11T06:19:58.262Z,43.34
2023-05-11T06:22:25.807Z,43.45
2023-05-11T06:24:54.932Z,43.20
2023-05-11T06:27:22.528Z,44.32
2023-05-11T06:29:50.082Z,44.16
2023-05-11T06:32:17.956Z,44.00
2023-05-11T06:34:45.686Z,43.03
2023-05-11T06:37:13.596Z,40.80
2023-05-11T06:39:41.351Z,40.57
2023-05-11T06:42:10.617Z,39.94
2023-05-11T06:44:38.234Z,36.58
2023-05-11T06:47:07.654Z,37.23
2023-05-11T06:49:35.527Z,35.15
2023-05-11T06:52:03.380Z,36.88
2023-05-11T06:54:34.639Z,39.30
2023-05-11T06:57:02.728Z,36.78
2023-05-11T06:59:31.959Z,34.36
2023-05-11T07:01:59.662Z,36.44
2023-05-11T07:04:27.402Z,36.89
2023-05-11T07:06:55.046Z,37.39
2023-05-11T07:09:23.032Z,34.13
2023-05-11T07:11:51.226Z,37.28
2023-05-11T07:14:19.129Z,36.91
2023-05-11T07:16:48.307Z,35.09
2023-05-11T07:19:16.053Z,34.79
2023-05-11T07:21:43.703Z,34.69
2023-05-11T07:24:11.412Z,34.83
2023-05-11T07:26:39.146Z,36.13
2023-05-11T07:29:06.719Z,34.78
2023-05-11T07:31:36.730Z,35.51
2023-05-11T07:34:05.890Z,34.69
2023-05-11T07:36:33.761Z,39.38
2023-05-11T07:39:01.728Z,41.63
2023-05-11T07:41:29.666Z,43.82
2023-05-11T07:43:59.841Z,44.90
2023-05-11T07:46:27.629Z,45.04
2023-05-11T07:49:03.448Z,44.03
2023-05-11T07:51:37.322Z,44.21
2023-05-11T07:54:05.273Z,43.75
2023-05-11T07:56:33.281Z,42.42
2023-05-11T07:59:01.174Z,40.12
2023-05-11T08:01:29.092Z,38.06
2023-05-11T08:03:56.778Z,36.42
2023-05-11T08:06:24.485Z,36.04
2023-05-11T08:08:53.551Z,36.93
2023-05-11T08:11:21.151Z,37.92
2023-05-11T08:13:48.944Z,39.35
2023-05-11T08:16:16.988Z,43.00
2023-05-11T08:18:44.758Z,45.06
2023-05-11T08:21:12.544Z,43.28
2023-05-11T08:23:40.187Z,43.61
2023-05-11T08:26:09.386Z,44.19
2023-05-11T08:28:37.094Z,45.54
2023-05-11T08:31:05.317Z,45.29
2023-05-11T08:33:38.028Z,47.62
2023-05-11T08:36:07.636Z,46.58
2023-05-11T08:38:35.459Z,46.07
2023-05-11T08:41:03.325Z,47.32
2023-05-11T08:43:35.791Z,44.39
2023-05-11T08:46:04.782Z,43.23
2023-05-11T08:48:32.757Z,40.39
2023-05-11T08:51:00.928Z,45.97
2023-05-11T08:53:28.646Z,44.14
2023-05-11T08:55:58.787Z,42.60
2023-05-11T08:58:27.649Z,43.06
2023-05-11T09:00:57.812Z,41.75
2023-05-11T09:03:29.679Z,41.16
2023-05-11T09:05:58.696Z,41.69
2023-05-11T09:08:30.627Z,41.58
2023-05-11T09:10:59.329Z,42.83
2023-05-11T09:13:27.392Z,41.24
2023-05-11T09:15:56.651Z,41.11
2023-05-11T09:18:24.525Z,42.09
2023-05-11T09:20:52.272Z,44.73
2023-05-11T09:23:25.260Z,44.41
2023-05-11T09:25:53.134Z,43.33
2023-05-11T09:28:26.071Z,45.44
2023-05-11T09:30:54.229Z,47.14
2023-05-11T09:33:24.239Z,45.19
2023-05-11T09:35:53.166Z,41.84
2023-05-11T09:38:21.243Z,41.79
2023-05-11T09:40:53.476Z,46.20
2023-05-11T09:43:23.706Z,45.82
2023-05-11T09:45:52.715Z,46.48
2023-05-11T09:48:32.001Z,44.08
2023-05-11T09:51:02.334Z,45.38
2023-05-11T09:53:38.426Z,44.77
2023-05-11T09:56:06.649Z,45.69
2023-05-11T09:58:45.872Z,44.48
2023-05-11T10:01:13.785Z,43.57
2023-05-11T10:03:51.323Z,43.51
2023-05-11T10:06:20.449Z,41.16
2023-05-11T10:08:48.469Z,42.13
2023-05-11T10:11:18.116Z,42.18
2023-05-11T10:13:46.125Z,38.95
2023-05-11T10:16:16.103Z,40.39
2023-05-11T10:18:46.352Z,40.29
2023-05-11T10:21:16.835Z,38.55
2023-05-11T10:23:44.527Z,40.49
2023-05-11T10:26:13.086Z,42.65
2023-05-11T10:28:41.032Z,44.53
2023-05-11T10:31:09.976Z,43.09
2023-05-11T10:33:38.518Z,42.83
2023-05-11T10:36:09.126Z,41.54
2023-05-11T10:38:38.513Z,40.36
2023-05-11T10:41:21.534Z,39.65
2023-05-11T10:44:04.040Z,39.32
2023-05-11T10:46:48.506Z,40.15
2023-05-11T10:49:34.797Z,38.67
2023-05-11T10:52:25.805Z,39.31
2023-05-11T10:55:09.291Z,39.11
2023-05-11T10:57:47.062Z,37.82
2023-05-11T11:00:53.506Z,38.77
2023-05-11T11:03:21.361Z,38.64
2023-05-11T11:05:48.957Z,38.85
2023-05-11T11:08:16.805Z,39.25
2023-05-11T11:10:46.012Z,39.65
2023-05-11T11:13:15.417Z,40.17
2023-05-11T11:16:16.174Z,41.51
2023-05-11T11:18:44.264Z,41.48
2023-05-11T11:21:11.935Z,40.39
2023-05-11T11:23:49.971Z,41.02
2023-05-11T11:26:49.084Z,41.15
2023-05-11T11:29:16.998Z,41.50
2023-05-11T11:31:44.922Z,42.25
2023-05-11T11:34:34.897Z,40.60
2023-05-11T11:37:07.141Z,39.49
2023-05-11T11:39:56.905Z,39.14
2023-05-11T11:42:36.778Z,39.02
2023-05-11T11:45:29.365Z,40.66
2023-05-11T11:48:14.279Z,39.03
2023-05-11T11:50:46.886Z,39.71
2023-05-11T11:54:05.061Z,42.50
2023-05-11T11:56:46.145Z,40.48
2023-05-11T11:59:15.676Z,40.42
2023-05-11T12:01:44.874Z,40.72
2023-05-11T12:04:51.996Z,40.77
2023-05-11T12:07:20.874Z,41.26
2023-05-11T12:09:49.013Z,42.13
2023-05-11T12:12:21.071Z,41.91
2023-05-11T12:14:50.342Z,42.80
2023-05-11T12:17:25.452Z,41.46
2023-05-11T12:19:53.502Z,42.63
2023-05-11T12:22:25.462Z,43.68
2023-05-11T12:24:57.251Z,42.90
2023-05-11T12:27:26.821Z,42.16
2023-05-11T12:29:55.833Z,42.98
2023-05-11T12:32:27.586Z,42.50
2023-05-11T12:34:59.631Z,42.17
2023-05-11T12:37:30.371Z,41.41
2023-05-11T12:39:58.625Z,42.85
2023-05-11T12:42:26.667Z,42.96
2023-05-11T12:44:56.287Z,42.25
2023-05-11T12:47:24.430Z,41.75
2023-05-11T12:49:52.169Z,40.81
2023-05-11T12:52:23.322Z,41.63
2023-05-11T12:54:50.805Z,42.42
2023-05-11T12:57:25.870Z,42.98
2023-05-11T13:00:09.486Z,41.91
2023-05-11T13:02:44.950Z,42.86
2023-05-11T13:05:14.159Z,41.62
2023-05-11T13:07:42.195Z,39.99
2023-05-11T13:10:11.874Z,42.97
2023-05-11T13:12:48.085Z,41.98
2023-05-11T13:15:17.924Z,42.14
2023-05-11T13:17:46.396Z,41.45
2023-05-11T13:20:21.424Z,43.26
2023-05-11T13:22:50.213Z,41.14
2023-05-11T13:25:20.785Z,40.79
2023-05-11T13:27:49.033Z,41.08
2023-05-11T13:30:18.285Z,42.35
2023-05-11T13:32:45.944Z,40.74
2023-05-11T13:35:13.762Z,42.34
2023-05-11T13:37:41.483Z,42.54
2023-05-11T13:40:10.455Z,41.45
2023-05-11T13:42:38.324Z,41.18
2023-05-11T13:45:07.033Z,41.28
2023-05-11T13:47:36.162Z,41.85
2023-05-11T13:50:06.510Z,40.17
2023-05-11T13:52:34.637Z,40.75
2023-05-11T13:55:02.431Z,40.37
2023-05-11T13:57:30.473Z,41.01
2023-05-11T13:59:58.190Z,41.36
2023-05-11T14:02:25.859Z,39.93
2023-05-11T14:04:55.197Z,40.71
2023-05-11T14:07:25.510Z,41.85
2023-05-11T14:10:00.398Z,41.49
2023-05-11T14:12:28.128Z,41.38
2023-05-11T14:14:55.906Z,41.91
2023-05-11T14:17:23.939Z,40.64
2023-05-11T14:19:51.718Z,40.86
2023-05-11T14:22:20.699Z,42.25
2023-05-11T14:24:48.896Z,40.83
2023-05-11T14:27:16.834Z,41.23
2023-05-11T14:29:44.419Z,41.85
2023-05-11T14:32:12.195Z,41.36
2023-05-11T14:34:39.947Z,42.59
2023-05-11T14:37:07.556Z,43.39
2023-05-11T14:39:37.720Z,43.90
2023-05-11T14:42:06.332Z,43.65
2023-05-11T14:44:34.190Z,44.54
2023-05-11T14:47:02.361Z,43.66
2023-05-11T14:49:30.073Z,43.59
2023-05-11T14:51:57.680Z,44.73
2023-05-11T14:54:25.495Z,43.71
2023-05-11T14:56:54.903Z,43.23
2023-05-11T14:59:23.463Z,43.28
2023-05-11T15:01:51.850Z,40.99
2023-05-11T15:04:19.669Z,42.77
2023-05-11T15:06:47.567Z,40.11
2023-05-11T15:09:15.496Z,40.30
2023-05-11T15:11:43.216Z,40.89
2023-05-11T15:14:12.230Z,41.38
2023-05-11T15:16:40.062Z,42.12
2023-05-11T15:19:07.922Z,43.84
2023-05-11T15:21:35.559Z,44.58
2023-05-11T15:24:03.501Z,44.31
2023-05-11T15:26:31.300Z,44.50
2023-05-11T15:28:59.198Z,46.07
2023-05-11T15:31:28.390Z,46.17
2023-05-11T15:33:56.213Z,45.08
2023-05-11T15:36:23.842Z,45.56
2023-05-11T15:38:51.680Z,45.82
2023-05-11T15:41:19.311Z,44.65
2023-05-11T15:43:46.854Z,45.32
2023-05-11T15:46:14.944Z,46.41
2023-05-11T15:48:44.205Z,46.64
2023-05-11T15:51:11.858Z,48.24
2023-05-11T15:53:39.620Z,48.91
2023-05-11T15:56:07.556Z,49.13
2023-05-11T15:58:36.033Z,50.38
2023-05-11T16:01:04.030Z,51.22
2023-05-11T16:03:33.039Z,50.80
2023-05-11T16:06:02.287Z,51.53
2023-05-11T16:08:30.175Z,52.50
2023-05-11T16:10:57.878Z,52.54
2023-05-11T16:13:25.507Z,52.84
2023-05-11T16:15:53.264Z,54.37
2023-05-11T16:18:21.301Z,55.25
2023-05-11T16:20:49.414Z,55.84
2023-05-11T16:23:18.663Z,55.63
2023-05-11T16:25:46.288Z,56.82
2023-05-11T16:28:13.882Z,57.78
2023-05-11T16:30:41.633Z,58.95
2023-05-11T16:33:09.432Z,59.25
2023-05-11T16:35:37.031Z,58.92
2023-05-11T16:38:05.100Z,61.18
2023-05-11T16:40:34.346Z,62.06
2023-05-11T16:43:01.901Z,63.05
2023-05-11T16:45:29.759Z,66.17
2023-05-11T16:47:57.506Z,66.00
2023-05-11T16:50:25.312Z,67.80
2023-05-11T16:52:53.162Z,67.77
2023-05-11T16:55:21.011Z,69.02
2023-05-11T16:57:50.727Z,69.16
2023-05-11T17:00:19.223Z,70.45
2023-05-11T17:02:47.905Z,70.40
2023-05-11T17:05:17.063Z,70.66
2023-05-11T17:07:44.809Z,70.35
2023-05-11T17:10:12.720Z,72.47
2023-05-11T17:12:41.188Z,73.73
2023-05-11T17:15:10.639Z,75.08
2023-05-11T17:17:39.556Z,75.68
2023-05-11T17:20:08.536Z,76.71
2023-05-11T17:22:36.666Z,78.50
2023-05-11T17:25:05.107Z,80.45
2023-05-11T17:27:34.662Z,82.15
2023-05-11T17:30:02.433Z,82.66
2023-05-11T17:32:31.898Z,82.01
2023-05-11T17:35:00.453Z,81.98
2023-05-11T17:37:32.217Z,85.61
2023-05-11T17:40:00.868Z,86.09
2023-05-11T17:42:28.670Z,87.96
2023-05-11T17:44:56.400Z,93.98
2023-05-11T17:47:24.319Z,95.24
2023-05-11T17:49:55.345Z,96.29
2023-05-11T17:52:23.762Z,99.24
2023-05-11T17:54:56.651Z,100.00
2023-05-11T17:57:27.469Z,100.00
2023-05-11T17:59:55.164Z,100.00
2023-05-11T18:02:22.930Z,100.00
2023-05-11T18:04:50.674Z,100.00
2023-05-11T18:07:20.303Z,100.00
2023-05-11T18:09:48.180Z,100.00
2023-05-11T18:12:15.754Z,100.00
2023-05-11T18:14:43.789Z,100.00
2023-05-11T18:17:11.640Z,100.00
2023-05-11T18:19:39.467Z,100.00
2023-05-11T18:22:07.185Z,100.00
2023-05-11T18:24:36.692Z,100.00
2023-05-11T18:27:04.711Z,100.00
2023-05-11T18:29:34.710Z,100.00
2023-05-11T18:32:03.105Z,100.00
2023-05-11T18:34:34.077Z,100.00
2023-05-11T18:37:03.389Z,100.00
2023-05-11T18:39:31.249Z,100.00
2023-05-11T18:42:01.840Z,100.00
2023-05-11T18:44:30.097Z,100.00
2023-05-11T18:46:59.388Z,100.00
2023-05-11T18:49:27.203Z,100.00
2023-05-11T18:51:56.765Z,100.00
2023-05-11T18:54:24.563Z,100.00
2023-05-11T18:56:52.134Z,100.00
2023-05-11T18:59:21.586Z,100.00
2023-05-11T19:01:49.726Z,100.00
2023-05-11T19:04:20.353Z,100.00
2023-05-11T19:06:52.718Z,100.00
2023-05-11T19:09:20.351Z,100.00
2023-05-11T19:11:50.694Z,100.00
2023-05-11T19:14:18.691Z,100.00
2023-05-11T19:16:47.939Z,100.00
2023-05-11T19:19:15.722Z,100.00
2023-05-11T19:21:43.558Z,100.00
2023-05-11T19:24:11.338Z,100.00
2023-05-11T19:26:39.148Z,100.00
2023-05-11T19:29:07.259Z,100.00
2023-05-11T19:31:37.719Z,100.00
2023-05-11T19:34:07.149Z,100.00
2023-05-11T19:36:37.561Z,100.00
2023-05-11T19:39:05.632Z,100.00
2023-05-11T19:41:33.521Z,100.00
2023-05-11T19:44:03.222Z,100.00
2023-05-11T19:46:31.138Z,100.00
2023-05-11T19:48:59.129Z,100.00
2023-05-11T19:51:31.564Z,100.00
2023-05-11T19:54:00.422Z,100.00
2023-05-11T19:56:28.062Z,100.00
2023-05-11T19:58:55.806Z,100.00
2023-05-11T20:01:23.472Z,100.00
2023-05-11T20:03:51.260Z,100.00
2023-05-11T20:06:19.195Z,100.00
2023-05-11T20:08:48.935Z,100.00
2023-05-11T20:11:16.637Z,100.00
2023-05-11T20:13:45.091Z,100.00
2023-05-11T20:16:12.880Z,100.00
2023-05-11T20:18:40.553Z,100.00
2023-05-11T20:21:08.322Z,100.00
2023-05-11T20:23:37.436Z,100.00
2023-05-11T20:26:06.778Z,100.00
2023-05-11T20:28:34.529Z,100.00
2023-05-11T20:31:02.252Z,100.00
2023-05-11T20:36:00.823Z,100.00
2023-05-11T20:38:28.782Z,100.00
2023-05-11T20:40:56.625Z,100.00
2023-05-11T20:43:26.044Z,100.00
2023-05-11T20:45:54.420Z,100.00
2023-05-11T20:48:32.403Z,100.00
2023-05-11T20:51:07.548Z,100.00
2023-05-11T20:53:35.742Z,100.00
2023-05-11T20:56:03.449Z,100.00
2023-05-11T20:58:33.704Z,100.00
2023-05-11T21:01:01.358Z,100.00
2023-05-11T21:03:28.989Z,100.00
2023-05-11T21:05:56.879Z,100.00
2023-05-11T21:08:24.874Z,100.00
2023-05-11T21:10:52.550Z,100.00
2023-05-11T21:13:20.517Z,100.00
2023-05-11T21:15:49.596Z,100.00
2023-05-11T21:18:18.356Z,100.00
2023-05-11T21:20:46.216Z,100.00
2023-05-11T21:23:13.809Z,100.00
2023-05-11T21:25:41.392Z,100.00
2023-05-11T21:28:09.272Z,100.00
2023-05-11T21:30:36.992Z,100.00
2023-05-11T21:33:06.117Z,100.00
2023-05-11T21:35:34.332Z,100.00
2023-05-11T21:38:01.906Z,100.00
2023-05-11T21:40:29.606Z,100.00
2023-05-11T21:42:57.589Z,100.00
2023-05-11T21:45:25.151Z,100.00
2023-05-11T21:47:52.835Z,100.00
2023-05-11T21:50:22.237Z,100.00
2023-05-11T21:52:49.839Z,100.00
2023-05-11T21:55:23.183Z,100.00
2023-05-11T21:57:51.379Z,100.00
2023-05-11T22:00:20.430Z,100.00
2023-05-11T22:02:48.972Z,100.00
2023-05-11T22:05:17.247Z,100.00
2023-05-11T22:07:46.527Z,100.00
2023-05-11T22:10:14.290Z,100.00
2023-05-11T22:12:42.110Z,100.00
2023-05-11T22:15:11.446Z,100.00
2023-05-11T22:17:39.635Z,100.00
2023-05-11T22:20:08.651Z,100.00
2023-05-11T22:22:37.142Z,100.00
2023-05-11T22:25:07.431Z,100.00
2023-05-11T22:27:35.331Z,100.00
2023-05-11T22:30:03.015Z,100.00
2023-05-11T22:32:30.892Z,100.00
2023-05-11T22:35:00.045Z,100.00
2023-05-11T22:37:27.830Z,100.00
2023-05-11T22:39:55.657Z,100.00
2023-05-11T22:42:24.795Z,100.00
2023-05-11T22:44:52.418Z,100.00
2023-05-11T22:47:20.110Z,100.00
2023-05-11T22:49:47.771Z,100.00
2023-05-11T22:52:16.543Z,100.00
2023-05-11T22:54:44.268Z,100.00
2023-05-11T22:57:12.077Z,100.00
2023-05-11T22:59:41.057Z,100.00
2023-05-11T23:02:08.783Z,100.00
2023-05-11T23:04:36.494Z,100.00
2023-05-11T23:07:04.412Z,100.00
2023-05-11T23:09:32.068Z,100.00
2023-05-11T23:11:59.672Z,100.00
2023-05-11T23:14:27.249Z,100.00
2023-05-11T23:16:56.389Z,100.00
2023-05-11T23:19:24.142Z,100.00
2023-05-11T23:21:51.741Z,100.00
2023-05-11T23:24:19.474Z,100.00
2023-05-11T23:26:47.252Z,100.00
2023-05-11T23:29:14.888Z,100.00
2023-05-11T23:31:42.876Z,100.00
2023-05-11T23:34:11.986Z,100.00
2023-05-11T23:36:39.601Z,100.00
2023-05-11T23:39:07.216Z,100.00
2023-05-11T23:41:34.992Z,100.00
2023-05-11T23:44:02.561Z,100.00
2023-05-11T23:46:30.533Z,100.00
2023-05-11T23:48:58.329Z,100.00
2023-05-11T23:51:27.373Z,100.00
2023-05-11T23:53:55.290Z,100.00
2023-05-11T23:56:23.083Z,100.00
2023-05-11T23:58:50.670Z,100.00
